Time;durP1;ratioP1;P1;durP2;ratioP2;P2;SDS_P1;SDS_P2;PMS_P1;PMS_P2;Temp;Humidity;BMP_temperature;BMP_pressure;BME280_temperature;BME280_humidity;BME280_pressure;Samples;Min_cycle;Max_cycle;Signal;HPM_P1;HPM_P2
2021/12/18 00:00:34;;;;;;;18.80;16.80;;;;;22.40;102812.00;;;;2084525;28;20447;-64
2021/12/18 00:01:35;;;;;;;18.08;16.27;;;;;22.30;102813.00;;;;2088403;28;20606;-64
2021/12/18 00:02:35;;;;;;;17.63;15.83;;;;;22.40;102799.00;;;;2092193;28;20216;-64
2021/12/18 00:03:35;;;;;;;18.40;15.73;;;;;22.40;102806.00;;;;2084594;28;20213;-64
2021/12/18 00:04:35;;;;;;;17.53;15.57;;;;;22.40;102803.00;;;;2084540;28;20216;-64
2021/12/18 00:05:36;;;;;;;18.07;16.27;;;;;22.40;102805.00;;;;2092169;28;20282;-65
2021/12/18 00:06:36;;;;;;;17.00;15.30;;;;;22.40;102808.00;;;;2092051;28;20645;-64
2021/12/18 00:07:36;;;;;;;16.93;15.23;;;;;22.30;102798.00;;;;2084089;28;20217;-64
2021/12/18 00:08:37;;;;;;;16.33;14.70;;;;;22.40;102788.00;;;;2083436;28;20271;-65
2021/12/18 00:09:39;;;;;;;17.13;15.33;;;;;22.30;102802.00;;;;2091771;28;20299;-64
2021/12/18 00:10:39;;;;;;;16.77;15.10;;;;;22.30;102786.00;;;;2091258;28;20470;-64
2021/12/18 00:11:40;;;;;;;16.83;15.23;;;;;22.30;102803.00;;;;2084305;28;20224;-64
2021/12/18 00:12:47;;;;;;;15.25;13.75;;;;;22.30;102797.00;;;;2084428;28;20263;-64
2021/12/18 00:13:49;;;;;;;15.45;13.85;;;;;22.30;102791.00;;;;2084432;28;20228;-64
2021/12/18 00:14:50;;;;;;;16.15;14.60;;;;;22.30;102800.00;;;;2091932;28;20644;-64
2021/12/18 00:15:50;;;;;;;16.65;14.95;;;;;22.30;102792.00;;;;2092202;28;20224;-65
2021/12/18 00:16:51;;;;;;;15.97;14.27;;;;;22.30;102798.00;;;;2084596;28;20213;-64
2021/12/18 00:17:51;;;;;;;14.87;13.37;;;;;22.30;102789.00;;;;2084208;28;20221;-65
2021/12/18 00:18:53;;;;;;;15.70;14.00;;;;;22.30;102789.00;;;;2092224;28;20277;-64
2021/12/18 00:19:53;;;;;;;16.13;14.52;;;;;22.30;102797.00;;;;2092010;28;20296;-64
2021/12/18 00:20:54;;;;;;;15.97;14.30;;;;;22.30;102793.00;;;;2083861;28;20240;-64
2021/12/18 00:21:54;;;;;;;15.80;14.23;;;;;22.30;102782.00;;;;2083275;28;20217;-64
2021/12/18 00:22:55;;;;;;;14.80;13.40;;;;;22.20;102792.00;;;;2084276;28;20209;-65
2021/12/18 00:23:55;;;;;;;14.40;13.00;;;;;22.30;102793.00;;;;2092029;28;20220;-64
2021/12/18 00:24:55;;;;;;;15.70;14.10;;;;;22.30;102795.00;;;;2092037;28;20448;-64
2021/12/18 00:25:56;;;;;;;14.87;13.47;;;;;22.30;102786.00;;;;2084082;28;20210;-64
2021/12/18 00:26:56;;;;;;;13.90;12.50;;;;;22.30;102791.00;;;;2084240;28;20568;-64
2021/12/18 00:27:57;;;;;;;13.70;12.37;;;;;22.30;102793.00;;;;2084389;28;20214;-64
2021/12/18 00:28:57;;;;;;;15.60;14.10;;;;;22.30;102789.00;;;;2083485;28;20631;-64
2021/12/18 00:29:57;;;;;;;14.90;13.40;;;;;22.20;102788.00;;;;2084784;28;20561;-64
2021/12/18 00:30:57;;;;;;;13.90;12.57;;;;;22.20;102791.00;;;;2084298;28;20593;-64
2021/12/18 00:31:58;;;;;;;14.00;12.70;;;;;22.20;102789.00;;;;2084566;28;20703;-64
2021/12/18 00:32:59;;;;;;;14.13;12.70;;;;;22.20;102785.00;;;;2084745;28;20685;-64
2021/12/18 00:33:59;;;;;;;13.37;12.07;;;;;22.20;102778.00;;;;2084732;28;20210;-64
2021/12/18 00:34:59;;;;;;;14.67;13.13;;;;;22.20;102786.00;;;;2084735;28;20228;-64
2021/12/18 00:36:00;;;;;;;13.23;11.90;;;;;22.20;102780.00;;;;2083636;28;20237;-64
2021/12/18 00:37:00;;;;;;;14.90;13.40;;;;;22.20;102785.00;;;;2085243;28;20274;-64
2021/12/18 00:38:01;;;;;;;13.73;12.37;;;;;22.20;102782.00;;;;2092245;28;20212;-64
2021/12/18 00:39:02;;;;;;;14.13;12.75;;;;;22.10;102782.00;;;;2084600;28;20251;-64
2021/12/18 00:40:08;;;;;;;12.43;11.33;;;;;22.20;102784.00;;;;2080289;28;20213;-64
2021/12/18 00:42:23;;;;;;;12.67;11.50;;;;;22.20;102791.00;;;;2083936;28;20217;-64
2021/12/18 00:43:31;;;;;;;12.65;11.45;;;;;22.20;102791.00;;;;2083423;28;21078;-64
2021/12/18 00:44:31;;;;;;;13.68;12.40;;;;;22.20;102785.00;;;;2083998;28;20217;-64
2021/12/18 00:45:31;;;;;;;12.20;11.00;;;;;22.20;102791.00;;;;2084505;28;20213;-64
2021/12/18 00:46:37;;;;;;;12.80;11.60;;;;;22.20;102793.00;;;;2084568;28;20223;-64
2021/12/18 00:47:38;;;;;;;13.35;12.05;;;;;22.20;102795.00;;;;2091954;28;20220;-64
2021/12/18 00:48:38;;;;;;;11.90;10.80;;;;;22.20;102794.00;;;;2092231;28;20212;-64
2021/12/18 00:49:38;;;;;;;13.10;11.80;;;;;22.10;102792.00;;;;2084257;28;20232;-64
2021/12/18 00:50:39;;;;;;;13.10;11.90;;;;;22.10;102795.00;;;;2083941;28;20211;-64
2021/12/18 00:51:39;;;;;;;12.67;11.40;;;;;22.10;102796.00;;;;2084000;28;20197;-64
2021/12/18 00:52:40;;;;;;;12.67;11.37;;;;;22.20;102791.00;;;;2083980;28;20200;-64
2021/12/18 00:53:40;;;;;;;12.77;11.47;;;;;22.10;102796.00;;;;2083999;28;20205;-64
2021/12/18 00:54:40;;;;;;;12.57;11.20;;;;;22.10;102802.00;;;;2084185;28;20239;-64
2021/12/18 00:55:41;;;;;;;12.10;11.00;;;;;22.10;102761.00;;;;2083494;28;20220;-64
2021/12/18 00:56:41;;;;;;;12.93;11.63;;;;;22.20;102796.00;;;;2091633;28;20205;-64
2021/12/18 00:57:42;;;;;;;12.17;11.00;;;;;22.10;102794.00;;;;2091575;28;20213;-64
2021/12/18 00:58:43;;;;;;;11.40;10.30;;;;;22.10;102799.00;;;;2084102;28;20216;-64
2021/12/18 00:59:43;;;;;;;13.00;11.70;;;;;22.10;102797.00;;;;2084130;28;20247;-64
2021/12/18 01:00:43;;;;;;;12.83;11.67;;;;;22.10;102793.00;;;;2084279;28;20464;-64
2021/12/18 01:01:46;;;;;;;12.50;11.37;;;;;22.10;102791.00;;;;2084381;28;20208;-64
2021/12/18 01:02:46;;;;;;;11.80;10.60;;;;;22.10;102796.00;;;;2084373;28;20304;-65
2021/12/18 01:03:48;;;;;;;11.20;10.10;;;;;22.10;102796.00;;;;2084265;28;20269;-65
2021/12/18 01:04:48;;;;;;;11.68;10.57;;;;;22.10;102798.00;;;;2084368;28;20244;-64
2021/12/18 01:05:48;;;;;;;12.40;11.10;;;;;22.10;102804.00;;;;2084478;28;20221;-65
2021/12/18 01:06:49;;;;;;;12.40;11.20;;;;;22.10;102808.00;;;;2083881;28;20440;-64
2021/12/18 01:07:49;;;;;;;12.03;10.83;;;;;22.10;102803.00;;;;2084266;28;20243;-65
2021/12/18 01:08:53;;;;;;;11.87;10.73;;;;;22.10;102803.00;;;;2084207;28;20217;-64
2021/12/18 01:11:31;;;;;;;14.40;11.38;;;;;22.10;102803.00;;;;2083659;28;20213;-64
2021/12/18 01:12:38;;;;;;;11.90;10.73;;;;;22.10;102805.00;;;;2082281;28;20273;-65
2021/12/18 01:13:53;;;;;;;12.18;11.05;;;;;22.10;102806.00;;;;2083262;28;20692;-64
2021/12/18 01:16:09;;;;;;;12.68;11.35;;;;;22.00;102798.00;;;;2082964;28;20315;-64
2021/12/18 01:23:26;;;;;;;11.50;10.35;;;;;22.00;102805.00;;;;2081023;28;20212;-64
2021/12/18 01:24:26;;;;;;;12.83;11.13;;;;;22.00;102813.00;;;;2083660;28;20217;-64
2021/12/18 01:25:26;;;;;;;11.87;10.60;;;;;22.00;102814.00;;;;2083897;28;20681;-64
2021/12/18 01:26:27;;;;;;;13.00;11.30;;;;;22.00;102806.00;;;;2083795;28;20631;-64
2021/12/18 01:27:27;;;;;;;12.43;11.23;;;;;22.00;102809.00;;;;2083653;28;20237;-64
2021/12/18 01:28:27;;;;;;;11.23;10.07;;;;;22.00;102814.00;;;;2083845;28;20339;-64
2021/12/18 01:29:28;;;;;;;13.10;10.90;;;;;22.00;102811.00;;;;2083079;28;20259;-64
2021/12/18 01:30:28;;;;;;;11.23;10.03;;;;;22.00;102813.00;;;;2083598;28;20209;-64
2021/12/18 01:31:28;;;;;;;10.87;9.73;;;;;22.00;102801.00;;;;2083924;28;20297;-64
2021/12/18 01:32:29;;;;;;;13.33;12.00;;;;;22.00;102807.00;;;;2084013;28;20213;-64
2021/12/18 01:33:30;;;;;;;12.68;10.98;;;;;22.00;102774.00;;;;2084199;28;20213;-64
2021/12/18 01:34:30;;;;;;;13.17;11.87;;;;;22.00;102805.00;;;;2084220;28;20224;-64
2021/12/18 01:35:31;;;;;;;12.10;10.90;;;;;22.00;102806.00;;;;2086375;28;20223;-64
2021/12/18 01:36:31;;;;;;;11.60;10.50;;;;;22.00;102806.00;;;;2083781;28;20588;-64
2021/12/18 01:37:32;;;;;;;13.23;10.57;;;;;22.00;102813.00;;;;2083763;28;20221;-64
2021/12/18 01:38:32;;;;;;;12.90;11.50;;;;;22.00;102807.00;;;;2083546;28;20205;-64
2021/12/18 01:39:32;;;;;;;13.37;11.13;;;;;21.90;102805.00;;;;2083818;28;20205;-64
2021/12/18 01:40:33;;;;;;;12.57;11.23;;;;;22.00;102809.00;;;;2083665;28;20279;-65
2021/12/18 01:41:49;;;;;;;11.40;10.27;;;;;22.00;102810.00;;;;2083468;28;20224;-65
2021/12/18 01:52:19;;;;;;;13.15;11.82;;;;;21.90;102798.00;;;;2083485;28;20217;-64
2021/12/18 01:53:19;;;;;;;11.10;10.00;;;;;21.90;102803.00;;;;2080571;28;20212;-64
2021/12/18 01:54:20;;;;;;;12.23;10.73;;;;;21.70;102799.00;;;;2083130;28;20243;-64
2021/12/18 01:55:29;;;;;;;12.77;11.57;;;;;21.90;102801.00;;;;2083321;28;20217;-64
2021/12/18 01:56:29;;;;;;;12.25;11.05;;;;;21.90;102798.00;;;;2083511;28;20210;-64
2021/12/18 01:57:31;;;;;;;12.30;11.00;;;;;21.90;102803.00;;;;2082924;28;20303;-64
2021/12/18 01:58:31;;;;;;;11.57;10.38;;;;;21.90;102802.00;;;;2083678;28;20732;-64
2021/12/18 01:59:47;;;;;;;12.77;11.57;;;;;21.90;102798.00;;;;2083767;28;20212;-64
2021/12/18 02:00:48;;;;;;;13.73;12.02;;;;;21.90;102802.00;;;;2083058;28;20225;-64
2021/12/18 02:01:48;;;;;;;11.90;10.70;;;;;21.90;102804.00;;;;2090976;28;20212;-64
2021/12/18 02:02:49;;;;;;;13.27;11.90;;;;;21.90;102801.00;;;;2090961;28;20465;-64
2021/12/18 02:03:49;;;;;;;12.33;11.13;;;;;21.90;102802.00;;;;2082949;28;20298;-64
2021/12/18 02:04:50;;;;;;;12.57;11.27;;;;;21.90;102801.00;;;;2083333;28;20227;-64
2021/12/18 02:05:50;;;;;;;12.27;11.07;;;;;21.90;102798.00;;;;2083129;28;20213;-64
2021/12/18 02:06:50;;;;;;;12.00;10.73;;;;;21.90;102793.00;;;;2090770;28;20208;-64
2021/12/18 02:07:51;;;;;;;12.60;11.10;;;;;21.90;102794.00;;;;2074471;28;20268;-64
2021/12/18 02:08:51;;;;;;;13.43;12.00;;;;;21.90;102790.00;;;;2066214;28;20215;-64
2021/12/18 02:11:15;;;;;;;13.20;11.75;;;;;21.70;102795.00;;;;2082611;28;20320;-64
2021/12/18 02:12:17;;;;;;;13.50;11.27;;;;;21.90;102782.00;;;;2082651;28;20739;-64
2021/12/18 02:19:34;;;;;;;13.27;11.98;;;;;21.90;102791.00;;;;2082888;28;20324;-64
2021/12/18 02:20:11;;;;;;;13.43;12.07;;;;;21.80;102791.00;;;;2081799;28;20225;-65
2021/12/18 02:21:16;;;;;;;12.18;10.95;;;;;21.80;102783.00;;;;2080841;28;20338;-64
2021/12/18 02:22:17;;;;;;;12.38;11.07;;;;;21.80;102778.00;;;;2083395;28;20212;-64
2021/12/18 02:23:18;;;;;;;11.73;10.55;;;;;21.80;102786.00;;;;2083421;28;20296;-64
2021/12/18 02:24:21;;;;;;;12.47;11.27;;;;;21.80;102780.00;;;;2082904;28;20589;-64
2021/12/18 02:25:23;;;;;;;13.32;12.00;;;;;21.80;102794.00;;;;2073935;28;20217;-64
2021/12/18 02:26:24;;;;;;;12.13;10.90;;;;;21.80;102778.00;;;;2074353;28;20241;-64
2021/12/18 02:27:24;;;;;;;12.33;11.13;;;;;21.80;102783.00;;;;2083113;28;20745;-64
2021/12/18 02:28:26;;;;;;;11.60;10.50;;;;;21.80;102774.00;;;;2090766;28;20204;-64
2021/12/18 02:29:30;;;;;;;12.95;11.40;;;;;21.80;102772.00;;;;2090671;28;20231;-64
2021/12/18 02:30:32;;;;;;;12.30;11.07;;;;;21.80;102768.00;;;;2082836;28;20228;-64
2021/12/18 02:31:32;;;;;;;12.10;10.90;;;;;21.80;102773.00;;;;2083006;28;20210;-64
2021/12/18 02:32:32;;;;;;;13.13;11.57;;;;;21.80;102760.00;;;;2081233;28;20575;-64
2021/12/18 02:33:33;;;;;;;12.03;10.83;;;;;21.80;102760.00;;;;2083809;28;20353;-64
2021/12/18 02:34:36;;;;;;;12.00;10.80;;;;;21.80;102758.00;;;;2083803;28;20194;-64
2021/12/18 02:35:43;;;;;;;11.13;10.00;;;;;21.80;102765.00;;;;2083771;28;20305;-64
2021/12/18 02:36:49;;;;;;;11.27;10.18;;;;;21.80;102764.00;;;;2083812;28;20217;-64
2021/12/18 02:37:49;;;;;;;11.10;10.00;;;;;21.80;102761.00;;;;2083655;28;20262;-64
2021/12/18 02:41:38;;;;;;;10.35;9.25;;;;;21.70;102745.00;;;;2075354;28;20713;-64
2021/12/18 02:42:38;;;;;;;11.07;9.82;;;;;21.80;102745.00;;;;2085084;28;20209;-64
2021/12/18 02:43:39;;;;;;;10.90;9.80;;;;;21.70;102743.00;;;;2081357;28;21663;-64
2021/12/18 02:44:40;;;;;;;9.35;8.45;;;;;21.80;102746.00;;;;2084956;28;20216;-64
2021/12/18 02:45:40;;;;;;;10.13;8.90;;;;;21.70;102744.00;;;;2084736;28;20213;-64
2021/12/18 02:46:40;;;;;;;9.80;8.80;;;;;21.70;102744.00;;;;2084422;28;20219;-64
2021/12/18 02:47:41;;;;;;;9.43;8.53;;;;;21.70;102744.00;;;;2084954;28;20220;-64
2021/12/18 02:48:41;;;;;;;9.60;8.23;;;;;21.70;102737.00;;;;2085019;28;20293;-64
2021/12/18 02:49:46;;;;;;;9.73;8.83;;;;;21.70;102746.00;;;;2085144;28;20217;-64
2021/12/18 02:50:46;;;;;;;9.95;8.93;;;;;21.70;102747.00;;;;2092404;28;20212;-64
2021/12/18 02:51:47;;;;;;;8.90;8.00;;;;;21.70;102745.00;;;;2092677;28;20237;-64
2021/12/18 02:52:47;;;;;;;10.23;9.10;;;;;21.70;102739.00;;;;2085269;28;20213;-64
2021/12/18 02:53:49;;;;;;;9.60;8.60;;;;;21.70;102741.00;;;;2085354;28;20263;-64
2021/12/18 02:54:49;;;;;;;9.57;8.20;;;;;21.70;102739.00;;;;2085344;28;20751;-64
2021/12/18 02:56:00;;;;;;;8.10;7.30;;;;;21.70;102741.00;;;;2085307;28;20221;-64
2021/12/18 02:57:01;;;;;;;8.77;7.97;;;;;21.70;102741.00;;;;2082382;28;20221;-64
2021/12/18 02:58:01;;;;;;;8.33;7.53;;;;;21.70;102747.00;;;;2085195;28;20237;-63
2021/12/18 02:59:05;;;;;;;9.67;8.67;;;;;21.70;102740.00;;;;2085043;28;20215;-64
2021/12/18 03:00:06;;;;;;;8.77;7.97;;;;;21.60;102738.00;;;;2085144;28;20209;-64
2021/12/18 03:01:08;;;;;;;8.00;7.20;;;;;21.70;102742.00;;;;2084719;28;20298;-64
2021/12/18 03:02:08;;;;;;;8.52;7.68;;;;;21.70;102739.00;;;;2085014;28;20455;-64
2021/12/18 03:03:10;;;;;;;8.90;7.80;;;;;21.70;102745.00;;;;2084953;28;20244;-64
2021/12/18 03:04:19;;;;;;;8.18;7.20;;;;;21.70;102749.00;;;;2084881;28;20304;-65
2021/12/18 03:05:26;;;;;;;8.25;7.20;;;;;21.70;102744.00;;;;2080518;28;20223;-64
2021/12/18 03:06:37;;;;;;;8.52;7.63;;;;;21.70;102749.00;;;;2084755;28;20315;-64
2021/12/18 03:07:38;;;;;;;8.98;7.85;;;;;21.70;102750.00;;;;2084876;28;20217;-64
2021/12/18 03:09:36;;;;;;;7.87;7.17;;;;;21.70;102745.00;;;;2076235;28;20241;-64
2021/12/18 03:20:49;;;;;;;7.47;6.78;;;;;21.70;102761.00;;;;2082897;28;20216;-64
2021/12/18 03:24:21;;;;;;;7.95;6.95;;;;;21.60;102754.00;;;;2081029;28;20212;-64
2021/12/18 03:25:25;;;;;;;7.90;7.10;;;;;21.60;102760.00;;;;2091793;28;20820;-64
2021/12/18 03:26:25;;;;;;;7.82;7.00;;;;;21.60;102758.00;;;;2086221;28;20213;-64
2021/12/18 03:27:25;;;;;;;7.93;6.77;;;;;21.60;102755.00;;;;2084387;28;20700;-64
2021/12/18 03:28:26;;;;;;;8.33;7.53;;;;;21.60;102757.00;;;;2082546;28;20312;-65
2021/12/18 03:29:27;;;;;;;7.22;6.53;;;;;21.60;102755.00;;;;2084495;28;20693;-64
2021/12/18 03:30:27;;;;;;;7.77;6.97;;;;;21.60;102749.00;;;;2084379;28;20271;-64
2021/12/18 03:31:28;;;;;;;7.73;6.97;;;;;21.60;102747.00;;;;2084284;28;20226;-64
2021/12/18 03:32:28;;;;;;;7.70;7.00;;;;;21.60;102753.00;;;;2084599;28;20653;-64
2021/12/18 03:33:28;;;;;;;7.50;6.80;;;;;21.60;102748.00;;;;2075431;28;20269;-64
2021/12/18 03:34:29;;;;;;;7.17;6.47;;;;;21.60;102754.00;;;;2092515;28;20216;-64
2021/12/18 03:35:30;;;;;;;7.40;6.70;;;;;21.60;102747.00;;;;2092432;28;20241;-64
2021/12/18 03:36:30;;;;;;;8.18;7.38;;;;;21.60;102747.00;;;;2084012;28;20229;-64
2021/12/18 03:37:33;;;;;;;7.77;6.97;;;;;21.60;102748.00;;;;2084707;28;20219;-64
2021/12/18 03:38:34;;;;;;;7.68;6.93;;;;;21.60;102751.00;;;;2084747;28;20205;-64
2021/12/18 03:39:35;;;;;;;7.37;6.60;;;;;21.60;102751.00;;;;2084815;28;20647;-64
2021/12/18 03:40:36;;;;;;;8.52;7.43;;;;;21.60;102754.00;;;;2084528;28;20209;-64
2021/12/18 03:41:36;;;;;;;7.23;6.63;;;;;21.60;102747.00;;;;2084043;28;20220;-64
2021/12/18 03:42:36;;;;;;;7.33;6.63;;;;;21.60;102752.00;;;;2084300;28;20558;-64
2021/12/18 03:43:37;;;;;;;7.30;6.60;;;;;21.60;102747.00;;;;2083870;28;20610;-64
2021/12/18 03:44:37;;;;;;;7.73;6.93;;;;;21.60;102744.00;;;;2076207;28;20709;-64
2021/12/18 03:45:37;;;;;;;7.30;6.60;;;;;21.60;102753.00;;;;2088187;28;20208;-64
2021/12/18 03:46:38;;;;;;;8.10;7.30;;;;;21.60;102746.00;;;;2084186;28;20215;-64
2021/12/18 03:47:38;;;;;;;8.00;7.30;;;;;21.60;102744.00;;;;2084030;28;20221;-64
2021/12/18 03:48:38;;;;;;;7.07;6.40;;;;;21.60;102745.00;;;;2084151;28;20247;-64
2021/12/18 03:49:39;;;;;;;7.50;6.60;;;;;21.60;102744.00;;;;2083845;28;20212;-64
2021/12/18 03:50:39;;;;;;;7.30;6.60;;;;;21.50;102747.00;;;;2083885;28;20201;-64
2021/12/18 03:51:39;;;;;;;7.60;6.90;;;;;21.50;102744.00;;;;2084257;28;20209;-64
2021/12/18 03:52:40;;;;;;;7.50;6.73;;;;;21.60;102738.00;;;;2083381;28;20319;-64
2021/12/18 03:53:40;;;;;;;7.87;7.07;;;;;21.60;102737.00;;;;2076271;28;20282;-64
2021/12/18 03:54:40;;;;;;;8.80;7.60;;;;;21.60;102723.00;;;;2084185;28;20201;-64
2021/12/18 03:55:41;;;;;;;7.43;6.73;;;;;21.50;102733.00;;;;2083692;28;20205;-64
2021/12/18 03:56:41;;;;;;;7.97;7.23;;;;;21.50;102729.00;;;;2083854;28;20225;-64
2021/12/18 03:57:41;;;;;;;6.77;6.07;;;;;21.50;102734.00;;;;2084336;28;20213;-64
2021/12/18 03:58:42;;;;;;;7.80;7.00;;;;;21.50;102733.00;;;;2084457;28;20240;-64
2021/12/18 03:59:42;;;;;;;7.47;6.70;;;;;21.50;102737.00;;;;2083906;28;20252;-64
2021/12/18 04:00:42;;;;;;;7.47;6.67;;;;;21.50;102738.00;;;;2084317;28;20218;-64
2021/12/18 04:01:43;;;;;;;6.60;6.00;;;;;21.50;102730.00;;;;2084654;28;20206;-64
2021/12/18 04:02:43;;;;;;;7.90;7.10;;;;;21.50;102735.00;;;;2084226;28;20226;-64
2021/12/18 04:03:43;;;;;;;8.20;7.33;;;;;21.50;102742.00;;;;2084425;28;20209;-64
2021/12/18 04:04:44;;;;;;;6.90;6.30;;;;;21.50;102740.00;;;;2084124;28;20217;-64
2021/12/18 04:05:44;;;;;;;6.80;6.20;;;;;21.50;102744.00;;;;2084215;28;20209;-64
2021/12/18 04:06:44;;;;;;;7.30;6.60;;;;;21.50;102746.00;;;;2081461;28;20255;-64
2021/12/18 04:07:49;;;;;;;7.20;6.50;;;;;21.50;102747.00;;;;2083815;28;20213;-64
2021/12/18 04:08:49;;;;;;;7.03;6.35;;;;;21.50;102753.00;;;;2081057;28;20212;-64
2021/12/18 04:09:49;;;;;;;6.33;5.80;;;;;21.50;102746.00;;;;2084632;28;20707;-64
2021/12/18 04:10:50;;;;;;;7.77;7.07;;;;;21.50;102744.00;;;;2084280;28;20259;-64
2021/12/18 04:11:50;;;;;;;7.10;6.40;;;;;21.50;102748.00;;;;2076303;28;20217;-64
2021/12/18 04:12:58;;;;;;;7.77;7.07;;;;;21.50;102747.00;;;;2084580;28;20220;-64
2021/12/18 04:13:59;;;;;;;6.32;5.72;;;;;21.50;102749.00;;;;2092064;28;20232;-64
2021/12/18 04:14:59;;;;;;;6.80;6.20;;;;;21.50;102750.00;;;;2091213;28;20208;-64
2021/12/18 04:15:59;;;;;;;6.80;6.20;;;;;21.50;102739.00;;;;2084841;28;20295;-64
2021/12/18 04:17:00;;;;;;;6.80;6.10;;;;;21.50;102744.00;;;;2081459;28;20307;-64
2021/12/18 04:18:00;;;;;;;7.57;6.77;;;;;21.50;102746.00;;;;2084759;28;20217;-64
2021/12/18 04:19:03;;;;;;;6.63;5.80;;;;;21.50;102739.00;;;;2092455;28;20240;-64
2021/12/18 04:20:04;;;;;;;7.03;6.18;;;;;21.50;102731.00;;;;2083804;28;20214;-64
2021/12/18 04:21:04;;;;;;;7.30;6.60;;;;;21.50;102739.00;;;;2075670;28;20234;-64
2021/12/18 04:22:04;;;;;;;7.20;6.60;;;;;21.50;102743.00;;;;2081793;28;20209;-64
2021/12/18 04:23:05;;;;;;;7.40;6.70;;;;;21.50;102746.00;;;;2076261;28;20211;-64
2021/12/18 04:24:05;;;;;;;6.80;6.10;;;;;21.50;102748.00;;;;2084251;28;20240;-64
2021/12/18 04:25:06;;;;;;;6.83;6.13;;;;;21.50;102743.00;;;;2083847;28;20209;-64
2021/12/18 04:26:06;;;;;;;6.80;6.10;;;;;21.50;102744.00;;;;2084360;28;20223;-64
2021/12/18 04:27:06;;;;;;;6.50;5.90;;;;;21.50;102748.00;;;;2082637;28;21753;-65
2021/12/18 04:28:07;;;;;;;6.30;5.70;;;;;21.50;102744.00;;;;2083623;28;20296;-64
2021/12/18 04:29:07;;;;;;;6.67;6.00;;;;;21.50;102735.00;;;;2083093;28;20207;-64
2021/12/18 04:30:08;;;;;;;6.27;5.67;;;;;21.50;102737.00;;;;2067015;28;20221;-64
2021/12/18 04:31:08;;;;;;;6.73;6.03;;;;;21.50;102738.00;;;;2073080;28;20293;-65
2021/12/18 04:32:09;;;;;;;6.90;6.20;;;;;21.50;102750.00;;;;2084075;28;20217;-64
2021/12/18 04:33:09;;;;;;;6.73;6.10;;;;;21.50;102755.00;;;;2084414;28;20248;-64
2021/12/18 04:34:09;;;;;;;6.70;6.00;;;;;21.50;102757.00;;;;2084402;28;20213;-64
2021/12/18 04:35:10;;;;;;;6.30;5.70;;;;;21.50;102752.00;;;;2084130;28;20209;-64
2021/12/18 04:36:10;;;;;;;6.83;6.23;;;;;21.40;102745.00;;;;2084029;28;20214;-64
2021/12/18 04:37:10;;;;;;;6.33;5.70;;;;;21.40;102745.00;;;;2075182;28;20254;-64
2021/12/18 04:38:10;;;;;;;5.70;5.20;;;;;21.40;102744.00;;;;2066108;28;20221;-64
2021/12/18 04:39:11;;;;;;;6.20;5.47;;;;;21.40;102744.00;;;;2092161;28;20204;-64
2021/12/18 04:40:11;;;;;;;6.73;5.90;;;;;21.40;102742.00;;;;2092041;28;20261;-64
2021/12/18 04:41:14;;;;;;;6.50;5.70;;;;;21.40;102745.00;;;;2081554;28;20209;-64
2021/12/18 04:42:14;;;;;;;7.00;6.30;;;;;21.40;102748.00;;;;2084057;28;20225;-64
2021/12/18 04:43:14;;;;;;;6.67;6.07;;;;;21.40;102748.00;;;;2084034;28;20549;-64
2021/12/18 04:44:15;;;;;;;6.50;5.90;;;;;21.40;102751.00;;;;2084016;28;20598;-64
2021/12/18 04:45:15;;;;;;;6.00;5.40;;;;;21.40;102744.00;;;;2084239;28;20545;-64
2021/12/18 04:46:16;;;;;;;6.60;6.00;;;;;21.40;102745.00;;;;2083641;28;20247;-64
2021/12/18 04:47:16;;;;;;;5.20;4.70;;;;;21.40;102730.00;;;;2083699;28;20213;-64
2021/12/18 04:48:16;;;;;;;6.37;5.77;;;;;21.40;102749.00;;;;2083119;28;20212;-64
2021/12/18 04:49:17;;;;;;;6.63;6.00;;;;;21.40;102744.00;;;;2083451;28;20201;-64
2021/12/18 04:50:17;;;;;;;6.70;6.10;;;;;21.40;102750.00;;;;2083523;28;20259;-64
2021/12/18 04:51:17;;;;;;;5.70;5.20;;;;;21.40;102752.00;;;;2083276;28;20205;-64
2021/12/18 04:52:17;;;;;;;6.37;5.77;;;;;21.40;102755.00;;;;2083286;28;20213;-64
2021/12/18 04:53:18;;;;;;;6.50;5.90;;;;;21.40;102758.00;;;;2084128;28;20252;-64
2021/12/18 04:54:18;;;;;;;6.40;5.80;;;;;21.40;102758.00;;;;2084162;28;20217;-64
2021/12/18 04:55:18;;;;;;;6.77;6.17;;;;;21.40;102755.00;;;;2084067;28;20241;-64
2021/12/18 04:56:19;;;;;;;6.27;5.67;;;;;21.40;102760.00;;;;2084272;28;20240;-64
2021/12/18 04:57:19;;;;;;;5.80;5.20;;;;;21.40;102758.00;;;;2083917;28;20209;-64
2021/12/18 04:58:19;;;;;;;6.63;5.93;;;;;21.40;102755.00;;;;2084454;28;20221;-64
2021/12/18 04:59:20;;;;;;;6.90;6.20;;;;;21.40;102750.00;;;;2084433;28;20213;-64
2021/12/18 05:00:20;;;;;;;6.43;5.83;;;;;21.40;102757.00;;;;2084302;28;20267;-64
2021/12/18 05:01:21;;;;;;;6.40;5.80;;;;;21.40;102765.00;;;;2082111;28;20712;-64
2021/12/18 05:02:25;;;;;;;7.20;6.50;;;;;21.40;102759.00;;;;2084070;28;20233;-64
2021/12/18 05:03:25;;;;;;;6.75;5.90;;;;;21.40;102762.00;;;;2083911;28;20216;-64
2021/12/18 05:04:26;;;;;;;6.50;5.83;;;;;21.40;102757.00;;;;2076026;28;20213;-64
2021/12/18 05:05:26;;;;;;;6.10;5.50;;;;;21.40;102755.00;;;;2083673;28;20250;-64
2021/12/18 05:06:29;;;;;;;6.20;5.60;;;;;21.40;102751.00;;;;2086272;28;20208;-64
2021/12/18 05:07:29;;;;;;;6.78;6.15;;;;;21.40;102757.00;;;;2083467;28;20216;-64
2021/12/18 05:08:29;;;;;;;7.00;6.30;;;;;21.40;102754.00;;;;2075743;28;20659;-64
2021/12/18 05:09:30;;;;;;;6.53;5.87;;;;;21.40;102740.00;;;;2083563;28;20559;-64
2021/12/18 05:10:30;;;;;;;6.87;6.17;;;;;21.40;102748.00;;;;2083513;28;20715;-64
2021/12/18 05:11:31;;;;;;;7.90;6.27;;;;;21.40;102741.00;;;;2089085;28;20231;-65
2021/12/18 05:12:31;;;;;;;6.37;5.60;;;;;21.30;102744.00;;;;2090909;28;20714;-64
2021/12/18 05:13:31;;;;;;;6.00;5.40;;;;;21.40;102745.00;;;;2083604;28;20249;-64
2021/12/18 05:14:32;;;;;;;6.37;5.77;;;;;21.40;102748.00;;;;2087034;28;20319;-64
2021/12/18 05:15:32;;;;;;;6.63;5.30;;;;;21.40;102740.00;;;;2083881;28;20233;-64
2021/12/18 05:16:33;;;;;;;6.97;6.37;;;;;21.30;102737.00;;;;2083684;28;20220;-64
2021/12/18 05:17:33;;;;;;;6.80;6.20;;;;;21.30;102739.00;;;;2082691;28;20212;-64
2021/12/18 05:18:33;;;;;;;6.00;5.40;;;;;21.40;102745.00;;;;2083886;28;20213;-64
2021/12/18 05:19:33;;;;;;;7.17;6.13;;;;;21.40;102741.00;;;;2083985;28;20247;-64
2021/12/18 05:20:34;;;;;;;7.07;5.90;;;;;21.40;102743.00;;;;2083797;28;20213;-64
2021/12/18 05:21:35;;;;;;;6.90;6.07;;;;;21.40;102744.00;;;;2083561;28;20215;-64
2021/12/18 05:22:35;;;;;;;7.70;6.07;;;;;21.40;102741.00;;;;2091103;28;20608;-64
2021/12/18 05:23:35;;;;;;;7.13;5.73;;;;;21.30;102742.00;;;;2083332;28;20452;-64
2021/12/18 05:24:36;;;;;;;8.73;6.37;;;;;21.40;102752.00;;;;2066869;28;20214;-64
2021/12/18 05:25:36;;;;;;;6.77;5.90;;;;;21.30;102745.00;;;;2074976;28;20357;-64
2021/12/18 05:26:36;;;;;;;6.87;5.97;;;;;21.30;102743.00;;;;2083612;28;20226;-64
2021/12/18 05:27:37;;;;;;;6.60;6.00;;;;;21.40;102747.00;;;;2082178;28;20240;-64
2021/12/18 05:28:37;;;;;;;7.43;6.10;;;;;21.30;102747.00;;;;2082198;28;20245;-64
2021/12/18 05:29:37;;;;;;;7.83;6.70;;;;;21.30;102751.00;;;;2083785;28;20703;-64
2021/12/18 05:30:38;;;;;;;7.40;6.40;;;;;21.30;102750.00;;;;2083229;28;20245;-64
2021/12/18 05:31:38;;;;;;;7.20;6.27;;;;;21.30;102747.00;;;;2081643;28;20222;-64
2021/12/18 05:32:38;;;;;;;7.70;6.90;;;;;21.30;102749.00;;;;2083909;28;20210;-64
2021/12/18 05:33:39;;;;;;;6.50;5.80;;;;;21.30;102746.00;;;;2075413;28;20237;-64
2021/12/18 05:34:40;;;;;;;6.57;5.50;;;;;21.30;102746.00;;;;2083527;28;20315;-64
2021/12/18 05:35:41;;;;;;;6.65;5.85;;;;;21.30;102759.00;;;;2083429;28;20224;-64
2021/12/18 05:38:04;;;;;;;7.40;6.60;;;;;21.30;102761.00;;;;2081012;28;20219;-64
2021/12/18 05:39:09;;;;;;;6.50;5.70;;;;;21.30;102761.00;;;;2083921;28;20213;-64
2021/12/18 05:40:10;;;;;;;8.02;6.25;;;;;21.30;102764.00;;;;2080110;28;20741;-64
2021/12/18 05:41:11;;;;;;;6.70;5.97;;;;;21.30;102762.00;;;;2083636;28;20216;-64
2021/12/18 05:42:11;;;;;;;6.80;5.93;;;;;21.30;102761.00;;;;2080687;28;20584;-64
2021/12/18 05:43:11;;;;;;;6.53;5.90;;;;;21.30;102764.00;;;;2083200;28;20745;-64
2021/12/18 05:44:12;;;;;;;8.17;6.70;;;;;21.30;102765.00;;;;2083720;28;20205;-64